sensor_id;sensor_type;location;lat;lon;timestamp;pressure;altitude;pressure_sealevel;temperature;humidity
50977;BME280;36992;48.200;12.418;2023-03-13T00:00:25;96471.34;;;8.99;55.23
50977;BME280;36992;48.200;12.418;2023-03-13T00:02:51;96473.53;;;8.97;55.46
50977;BME280;36992;48.200;12.418;2023-03-13T00:05:19;96470.84;;;8.97;55.16
50977;BME280;36992;48.200;12.418;2023-03-13T00:07:45;96471.94;;;8.96;55.25
50977;BME280;36992;48.200;12.418;2023-03-13T00:10:12;96475.72;;;8.95;55.62
50977;BME280;36992;48.200;12.418;2023-03-13T00:12:38;96472.50;;;8.93;55.64
50977;BME280;36992;48.200;12.418;2023-03-13T00:15:06;96465.53;;;8.92;55.16
50977;BME280;36992;48.200;12.418;2023-03-13T00:17:32;96460.97;;;8.93;55.47
50977;BME280;36992;48.200;12.418;2023-03-13T00:19:59;96453.19;;;8.91;55.07
50977;BME280;36992;48.200;12.418;2023-03-13T00:22:27;96451.31;;;8.92;55.21
50977;BME280;36992;48.200;12.418;2023-03-13T00:24:53;96451.59;;;8.90;55.46
50977;BME280;36992;48.200;12.418;2023-03-13T00:27:20;96443.00;;;8.88;55.26
50977;BME280;36992;48.200;12.418;2023-03-13T00:29:46;96432.25;;;8.88;55.21
50977;BME280;36992;48.200;12.418;2023-03-13T00:32:13;96436.03;;;8.87;55.36
50977;BME280;36992;48.200;12.418;2023-03-13T00:34:39;96433.66;;;8.85;55.40
50977;BME280;36992;48.200;12.418;2023-03-13T00:37:06;96439.81;;;8.86;55.13
50977;BME280;36992;48.200;12.418;2023-03-13T00:39:34;96431.75;;;8.86;54.95
50977;BME280;36992;48.200;12.418;2023-03-13T00:42:00;96432.34;;;8.83;55.42
50977;BME280;36992;48.200;12.418;2023-03-13T00:44:28;96426.97;;;8.83;54.86
50977;BME280;36992;48.200;12.418;2023-03-13T00:46:54;96432.34;;;8.83;54.95
50977;BME280;36992;48.200;12.418;2023-03-13T00:49:21;96423.47;;;8.82;54.93
50977;BME280;36992;48.200;12.418;2023-03-13T00:51:47;96425.34;;;8.82;54.93
50977;BME280;36992;48.200;12.418;2023-03-13T00:54:14;96418.38;;;8.81;55.07
50977;BME280;36992;48.200;12.418;2023-03-13T00:56:42;96411.91;;;8.82;54.60
50977;BME280;36992;48.200;12.418;2023-03-13T00:59:08;96411.41;;;8.80;54.26
50977;BME280;36992;48.200;12.418;2023-03-13T01:01:35;96404.47;;;8.79;54.31
50977;BME280;36992;48.200;12.418;2023-03-13T01:04:03;96398.00;;;8.80;53.82
50977;BME280;36992;48.200;12.418;2023-03-13T01:06:33;96394.22;;;8.81;53.63
50977;BME280;36992;48.200;12.418;2023-03-13T01:09:00;96385.66;;;8.79;53.89
50977;BME280;36992;48.200;12.418;2023-03-13T01:11:28;96390.75;;;8.80;53.81
50977;BME280;36992;48.200;12.418;2023-03-13T01:13:58;96386.69;;;8.83;53.25
50977;BME280;36992;48.200;12.418;2023-03-13T01:16:26;96382.38;;;8.82;53.61
50977;BME280;36992;48.200;12.418;2023-03-13T01:18:55;96378.09;;;8.81;53.33
50977;BME280;36992;48.200;12.418;2023-03-13T01:21:22;96374.31;;;8.82;53.00
50977;BME280;36992;48.200;12.418;2023-03-13T01:23:51;96376.22;;;8.81;52.93
50977;BME280;36992;48.200;12.418;2023-03-13T01:26:18;96368.16;;;8.81;53.02
50977;BME280;36992;48.200;12.418;2023-03-13T01:28:45;96363.88;;;8.80;52.96
50977;BME280;36992;48.200;12.418;2023-03-13T01:31:15;96361.41;;;8.84;52.81
50977;BME280;36992;48.200;12.418;2023-03-13T01:33:43;96367.34;;;8.81;53.48
50977;BME280;36992;48.200;12.418;2023-03-13T01:36:11;96363.06;;;8.80;53.19
50977;BME280;36992;48.200;12.418;2023-03-13T01:38:38;96359.88;;;8.77;52.97
50977;BME280;36992;48.200;12.418;2023-03-13T01:41:06;96355.63;;;8.76;52.66
50977;BME280;36992;48.200;12.418;2023-03-13T01:43:35;96358.28;;;8.76;53.13
50977;BME280;36992;48.200;12.418;2023-03-13T01:46:07;96348.63;;;8.75;52.63
50977;BME280;36992;48.200;12.418;2023-03-13T01:48:46;96351.31;;;8.75;52.86
50977;BME280;36992;48.200;12.418;2023-03-13T01:51:19;96347.03;;;8.74;52.31
50977;BME280;36992;48.200;12.418;2023-03-13T01:53:49;96346.53;;;8.72;53.01
50977;BME280;36992;48.200;12.418;2023-03-13T01:56:19;96335.28;;;8.70;53.00
50977;BME280;36992;48.200;12.418;2023-03-13T01:58:49;96334.75;;;8.68;52.60
50977;BME280;36992;48.200;12.418;2023-03-13T02:01:17;96334.25;;;8.66;52.79
50977;BME280;36992;48.200;12.418;2023-03-13T02:03:46;96333.44;;;8.66;52.74
50977;BME280;36992;48.200;12.418;2023-03-13T02:06:14;96327.84;;;8.62;52.63
50977;BME280;36992;48.200;12.418;2023-03-13T02:08:46;96336.44;;;8.64;53.22
50977;BME280;36992;48.200;12.418;2023-03-13T02:11:22;96334.81;;;8.63;53.06
50977;BME280;36992;48.200;12.418;2023-03-13T02:13:50;96338.09;;;8.60;52.97
50977;BME280;36992;48.200;12.418;2023-03-13T02:16:19;96340.56;;;8.56;53.41
50977;BME280;36992;48.200;12.418;2023-03-13T02:18:48;96338.66;;;8.57;53.16
50977;BME280;36992;48.200;12.418;2023-03-13T02:21:23;96326.31;;;8.56;52.99
50977;BME280;36992;48.200;12.418;2023-03-13T02:23:58;96327.41;;;8.55;52.88
50977;BME280;36992;48.200;12.418;2023-03-13T02:26:28;96333.38;;;8.52;52.83
50977;BME280;36992;48.200;12.418;2023-03-13T02:28:54;96323.16;;;8.48;52.87
50977;BME280;36992;48.200;12.418;2023-03-13T02:31:21;96326.94;;;8.47;52.93
50977;BME280;36992;48.200;12.418;2023-03-13T02:33:47;96330.72;;;8.46;52.91
50977;BME280;36992;48.200;12.418;2023-03-13T02:36:15;96324.81;;;8.44;52.74
50977;BME280;36992;48.200;12.418;2023-03-13T02:38:45;96330.72;;;8.46;52.70
50977;BME280;36992;48.200;12.418;2023-03-13T02:41:13;96330.50;;;8.43;52.94
50977;BME280;36992;48.200;12.418;2023-03-13T02:43:41;96332.09;;;8.44;52.64
50977;BME280;36992;48.200;12.418;2023-03-13T02:46:09;96330.78;;;8.41;52.85
50977;BME280;36992;48.200;12.418;2023-03-13T02:48:39;96316.53;;;8.41;52.73
50977;BME280;36992;48.200;12.418;2023-03-13T02:51:11;96317.34;;;8.41;52.84
50977;BME280;36992;48.200;12.418;2023-03-13T02:53:40;96308.25;;;8.37;53.37
50977;BME280;36992;48.200;12.418;2023-03-13T02:56:07;96313.13;;;8.35;53.57
50977;BME280;36992;48.200;12.418;2023-03-13T02:58:41;96312.03;;;8.36;52.79
50977;BME280;36992;48.200;12.418;2023-03-13T03:01:09;96306.72;;;8.31;52.98
50977;BME280;36992;48.200;12.418;2023-03-13T03:03:35;96315.09;;;8.29;52.92
50977;BME280;36992;48.200;12.418;2023-03-13T03:06:03;96314.28;;;8.29;52.76
50977;BME280;36992;48.200;12.418;2023-03-13T03:08:30;96314.56;;;8.27;53.06
50977;BME280;36992;48.200;12.418;2023-03-13T03:10:58;96330.94;;;8.26;53.14
50977;BME280;36992;48.200;12.418;2023-03-13T03:13:24;96318.63;;;8.24;53.24
50977;BME280;36992;48.200;12.418;2023-03-13T03:15:52;96321.28;;;8.24;52.90
50977;BME280;36992;48.200;12.418;2023-03-13T03:18:19;96326.16;;;8.22;53.52
50977;BME280;36992;48.200;12.418;2023-03-13T03:20:45;96324.56;;;8.21;53.36
50977;BME280;36992;48.200;12.418;2023-03-13T03:23:12;96322.97;;;8.20;52.66
50977;BME280;36992;48.200;12.418;2023-03-13T03:25:38;96324.03;;;8.19;53.38
50977;BME280;36992;48.200;12.418;2023-03-13T03:28:05;96314.38;;;8.18;53.46
50977;BME280;36992;48.200;12.418;2023-03-13T03:30:31;96323.53;;;8.17;53.41
50977;BME280;36992;48.200;12.418;2023-03-13T03:33:01;96325.66;;;8.20;53.07
50977;BME280;36992;48.200;12.418;2023-03-13T03:35:28;96337.22;;;8.16;53.71
50977;BME280;36992;48.200;12.418;2023-03-13T03:37:54;96326.00;;;8.14;53.67
50977;BME280;36992;48.200;12.418;2023-03-13T03:40:21;96329.25;;;8.10;53.55
50977;BME280;36992;48.200;12.418;2023-03-13T03:42:47;96324.44;;;8.07;53.63
50977;BME280;36992;48.200;12.418;2023-03-13T03:45:14;96329.00;;;8.07;53.66
50977;BME280;36992;48.200;12.418;2023-03-13T03:47:40;96329.59;;;8.04;53.58
50977;BME280;36992;48.200;12.418;2023-03-13T03:50:09;96340.81;;;8.06;53.74
50977;BME280;36992;48.200;12.418;2023-03-13T03:52:36;96340.59;;;8.02;53.98
50977;BME280;36992;48.200;12.418;2023-03-13T03:55:03;96342.75;;;8.00;54.31
50977;BME280;36992;48.200;12.418;2023-03-13T03:57:30;96328.53;;;8.00;54.11
50977;BME280;36992;48.200;12.418;2023-03-13T03:59:56;96338.50;;;7.99;54.35
50977;BME280;36992;48.200;12.418;2023-03-13T04:02:23;96333.41;;;7.97;54.72
50977;BME280;36992;48.200;12.418;2023-03-13T04:04:49;96332.38;;;7.93;54.91
50977;BME280;36992;48.200;12.418;2023-03-13T04:07:17;96324.31;;;7.93;54.72
50977;BME280;36992;48.200;12.418;2023-03-13T04:09:44;96323.31;;;7.89;55.16
50977;BME280;36992;48.200;12.418;2023-03-13T04:12:10;96325.44;;;7.87;55.12
50977;BME280;36992;48.200;12.418;2023-03-13T04:14:36;96323.84;;;7.86;55.17
50977;BME280;36992;48.200;12.418;2023-03-13T04:17:03;96322.25;;;7.85;54.82
50977;BME280;36992;48.200;12.418;2023-03-13T04:19:29;96312.91;;;7.82;54.84
50977;BME280;36992;48.200;12.418;2023-03-13T04:21:56;96319.06;;;7.83;55.25
50977;BME280;36992;48.200;12.418;2023-03-13T04:24:24;96319.06;;;7.83;55.15
50977;BME280;36992;48.200;12.418;2023-03-13T04:26:50;96315.84;;;7.81;55.25
50977;BME280;36992;48.200;12.418;2023-03-13T04:29:16;96315.84;;;7.81;55.26
50977;BME280;36992;48.200;12.418;2023-03-13T04:31:43;96312.66;;;7.79;55.63
50977;BME280;36992;48.200;12.418;2023-03-13T04:34:09;96317.75;;;7.80;55.48
50977;BME280;36992;48.200;12.418;2023-03-13T04:36:36;96303.53;;;7.80;55.55
50977;BME280;36992;48.200;12.418;2023-03-13T04:39:02;96303.53;;;7.80;55.18
50977;BME280;36992;48.200;12.418;2023-03-13T04:41:30;96304.06;;;7.82;55.02
50977;BME280;36992;48.200;12.418;2023-03-13T04:43:58;96300.84;;;7.80;55.13
50977;BME280;36992;48.200;12.418;2023-03-13T04:46:24;96286.34;;;7.81;55.26
50977;BME280;36992;48.200;12.418;2023-03-13T04:48:50;96284.50;;;7.81;55.02
50977;BME280;36992;48.200;12.418;2023-03-13T04:51:17;96278.31;;;7.81;55.02
50977;BME280;36992;48.200;12.418;2023-03-13T04:53:43;96278.31;;;7.81;54.79
50977;BME280;36992;48.200;12.418;2023-03-13T04:56:11;96276.16;;;7.83;54.71
50977;BME280;36992;48.200;12.418;2023-03-13T04:58:43;96263.25;;;7.85;54.87
50977;BME280;36992;48.200;12.418;2023-03-13T05:01:09;96266.22;;;7.83;54.37
50977;BME280;36992;48.200;12.418;2023-03-13T05:03:36;96264.34;;;7.84;54.81
50977;BME280;36992;48.200;12.418;2023-03-13T05:06:03;96268.63;;;7.85;54.94
50977;BME280;36992;48.200;12.418;2023-03-13T05:08:29;96259.50;;;7.86;54.71
50977;BME280;36992;48.200;12.418;2023-03-13T05:10:56;96251.44;;;7.86;54.28
50977;BME280;36992;48.200;12.418;2023-03-13T05:13:22;96254.13;;;7.86;54.41
50977;BME280;36992;48.200;12.418;2023-03-13T05:15:50;96258.13;;;7.89;54.73
50977;BME280;36992;48.200;12.418;2023-03-13T05:18:16;96246.63;;;7.88;54.38
50977;BME280;36992;48.200;12.418;2023-03-13T05:20:43;96241.25;;;7.88;54.52
50977;BME280;36992;48.200;12.418;2023-03-13T05:23:09;96238.25;;;7.90;54.44
50977;BME280;36992;48.200;12.418;2023-03-13T05:25:36;96239.06;;;7.90;54.22
50977;BME280;36992;48.200;12.418;2023-03-13T05:28:03;96245.22;;;7.91;54.19
50977;BME280;36992;48.200;12.418;2023-03-13T05:30:29;96242.25;;;7.92;54.07
50977;BME280;36992;48.200;12.418;2023-03-13T05:32:57;96237.44;;;7.94;54.06
50977;BME280;36992;48.200;12.418;2023-03-13T05:35:23;96233.94;;;7.94;53.87
50977;BME280;36992;48.200;12.418;2023-03-13T05:37:50;96228.28;;;7.95;54.24
50977;BME280;36992;48.200;12.418;2023-03-13T05:40:17;96218.34;;;7.96;53.73
50977;BME280;36992;48.200;12.418;2023-03-13T05:42:44;96218.66;;;7.94;53.90
50977;BME280;36992;48.200;12.418;2023-03-13T05:45:11;96230.97;;;7.95;54.28
50977;BME280;36992;48.200;12.418;2023-03-13T05:47:37;96217.03;;;7.93;54.39
50977;BME280;36992;48.200;12.418;2023-03-13T05:50:07;96229.06;;;7.96;54.09
50977;BME280;36992;48.200;12.418;2023-03-13T05:52:33;96217.03;;;7.93;53.84
50977;BME280;36992;48.200;12.418;2023-03-13T05:55:00;96218.66;;;7.94;53.71
50977;BME280;36992;48.200;12.418;2023-03-13T05:57:27;96224.81;;;7.95;54.55
50977;BME280;36992;48.200;12.418;2023-03-13T05:59:53;96212.47;;;7.94;54.38
50977;BME280;36992;48.200;12.418;2023-03-13T06:02:20;96206.84;;;7.95;54.07
50977;BME280;36992;48.200;12.418;2023-03-13T06:04:46;96200.38;;;7.96;54.42
50977;BME280;36992;48.200;12.418;2023-03-13T06:07:14;96196.59;;;7.97;53.83
50977;BME280;36992;48.200;12.418;2023-03-13T06:09:40;96190.44;;;7.97;54.49
50977;BME280;36992;48.200;12.418;2023-03-13T06:12:07;96192.06;;;7.98;54.19
50977;BME280;36992;48.200;12.418;2023-03-13T06:14:34;96184.78;;;7.99;54.70
50977;BME280;36992;48.200;12.418;2023-03-13T06:17:02;96180.50;;;7.97;53.82
50977;BME280;36992;48.200;12.418;2023-03-13T06:19:29;96191.25;;;7.97;54.12
50977;BME280;36992;48.200;12.418;2023-03-13T06:21:55;96178.63;;;7.98;54.16
50977;BME280;36992;48.200;12.418;2023-03-13T06:24:23;96194.44;;;8.00;54.11
50977;BME280;36992;48.200;12.418;2023-03-13T06:26:50;96176.75;;;7.99;54.22
50977;BME280;36992;48.200;12.418;2023-03-13T06:29:17;96184.50;;;8.00;54.15
50977;BME280;36992;48.200;12.418;2023-03-13T06:31:43;96174.56;;;8.01;53.85
50977;BME280;36992;48.200;12.418;2023-03-13T06:34:10;96166.50;;;8.01;53.34
50977;BME280;36992;48.200;12.418;2023-03-13T06:36:37;96182.31;;;8.02;54.02
50977;BME280;36992;48.200;12.418;2023-03-13T06:39:03;96190.09;;;8.04;54.58
50977;BME280;36992;48.200;12.418;2023-03-13T06:41:32;96194.09;;;8.06;53.98
50977;BME280;36992;48.200;12.418;2023-03-13T06:43:58;96177.19;;;8.06;54.22
50977;BME280;36992;48.200;12.418;2023-03-13T06:46:25;96169.66;;;8.08;53.78
50977;BME280;36992;48.200;12.418;2023-03-13T06:48:51;96187.34;;;8.09;54.25
50977;BME280;36992;48.200;12.418;2023-03-13T06:51:19;96172.25;;;8.13;53.82
50977;BME280;36992;48.200;12.418;2023-03-13T06:53:47;96161.81;;;8.12;54.59
50977;BME280;36992;48.200;12.418;2023-03-13T06:56:14;96159.94;;;8.12;54.76
50977;BME280;36992;48.200;12.418;2023-03-13T06:58:42;96152.41;;;8.14;54.34
50977;BME280;36992;48.200;12.418;2023-03-13T07:01:10;96156.69;;;8.15;54.45
50977;BME280;36992;48.200;12.418;2023-03-13T07:03:37;96162.03;;;8.15;54.39
50977;BME280;36992;48.200;12.418;2023-03-13T07:06:06;96161.75;;;8.17;55.39
50977;BME280;36992;48.200;12.418;2023-03-13T07:08:33;96163.63;;;8.16;55.05
50977;BME280;36992;48.200;12.418;2023-03-13T07:11:02;96153.94;;;8.20;54.69
50977;BME280;36992;48.200;12.418;2023-03-13T07:13:29;96170.03;;;8.20;55.02
50977;BME280;36992;48.200;12.418;2023-03-13T07:16:00;96153.06;;;8.25;54.83
50977;BME280;36992;48.200;12.418;2023-03-13T07:18:28;96158.19;;;8.21;55.09
50977;BME280;36992;48.200;12.418;2023-03-13T07:20:57;96146.88;;;8.24;55.04
50977;BME280;36992;48.200;12.418;2023-03-13T07:23:25;96143.09;;;8.26;54.96
50977;BME280;36992;48.200;12.418;2023-03-13T07:25:52;96149.00;;;8.28;54.91
50977;BME280;36992;48.200;12.418;2023-03-13T07:28:20;96145.72;;;8.31;54.68
50977;BME280;36992;48.200;12.418;2023-03-13T07:30:47;96163.94;;;8.34;54.97
50977;BME280;36992;48.200;12.418;2023-03-13T07:33:15;96163.66;;;8.35;54.56
50977;BME280;36992;48.200;12.418;2023-03-13T07:35:46;96170.00;;;8.40;54.56
50977;BME280;36992;48.200;12.418;2023-03-13T07:38:13;96158.50;;;8.39;55.30
50977;BME280;36992;48.200;12.418;2023-03-13T07:40:46;96163.75;;;8.44;54.72
50977;BME280;36992;48.200;12.418;2023-03-13T07:43:13;96164.06;;;8.43;55.10
50977;BME280;36992;48.200;12.418;2023-03-13T07:45:49;96171.53;;;8.46;54.97
50977;BME280;36992;48.200;12.418;2023-03-13T07:48:17;96170.16;;;8.48;55.56
50977;BME280;36992;48.200;12.418;2023-03-13T07:50:44;96171.53;;;8.46;56.15
50977;BME280;36992;48.200;12.418;2023-03-13T07:53:10;96158.09;;;8.46;55.51
50977;BME280;36992;48.200;12.418;2023-03-13T07:55:37;96153.56;;;8.46;55.62
50977;BME280;36992;48.200;12.418;2023-03-13T07:58:03;96141.72;;;8.47;55.94
50977;BME280;36992;48.200;12.418;2023-03-13T08:00:29;96149.78;;;8.47;55.31
50977;BME280;36992;48.200;12.418;2023-03-13T08:02:56;96140.63;;;8.48;56.06
50977;BME280;36992;48.200;12.418;2023-03-13T08:05:24;96143.53;;;8.52;55.43
50977;BME280;36992;48.200;12.418;2023-03-13T08:07:50;96135.75;;;8.50;55.98
50977;BME280;36992;48.200;12.418;2023-03-13T08:10:16;96135.75;;;8.50;56.16
50977;BME280;36992;48.200;12.418;2023-03-13T08:12:43;96137.41;;;8.52;55.71
50977;BME280;36992;48.200;12.418;2023-03-13T08:15:10;96129.34;;;8.52;55.69
50977;BME280;36992;48.200;12.418;2023-03-13T08:17:36;96137.91;;;8.54;55.56
50977;BME280;36992;48.200;12.418;2023-03-13T08:20:03;96125.56;;;8.53;55.74
50977;BME280;36992;48.200;12.418;2023-03-13T08:22:34;96139.47;;;8.55;55.84
50977;BME280;36992;48.200;12.418;2023-03-13T08:25:01;96149.44;;;8.54;56.08
50977;BME280;36992;48.200;12.418;2023-03-13T08:27:28;96149.44;;;8.54;55.94
50977;BME280;36992;48.200;12.418;2023-03-13T08:29:54;96148.63;;;8.54;56.06
50977;BME280;36992;48.200;12.418;2023-03-13T08:32:21;96147.03;;;8.53;55.93
50977;BME280;36992;48.200;12.418;2023-03-13T08:34:47;96144.84;;;8.55;56.10
50977;BME280;36992;48.200;12.418;2023-03-13T08:37:14;96135.69;;;8.56;55.91
50977;BME280;36992;48.200;12.418;2023-03-13T08:39:42;96141.59;;;8.58;56.28
50977;BME280;36992;48.200;12.418;2023-03-13T08:42:10;96131.91;;;8.57;57.34
50977;BME280;36992;48.200;12.418;2023-03-13T08:44:38;96124.38;;;8.59;56.50
50977;BME280;36992;48.200;12.418;2023-03-13T08:47:05;96117.66;;;8.61;56.62
50977;BME280;36992;48.200;12.418;2023-03-13T08:49:32;96105.00;;;8.62;56.22
50977;BME280;36992;48.200;12.418;2023-03-13T08:51:58;96105.53;;;8.64;57.14
50977;BME280;36992;48.200;12.418;2023-03-13T08:54:25;96107.59;;;8.67;56.62
50977;BME280;36992;48.200;12.418;2023-03-13T08:56:53;96097.34;;;8.69;57.21
50977;BME280;36992;48.200;12.418;2023-03-13T08:59:19;96102.72;;;8.69;56.98
50977;BME280;36992;48.200;12.418;2023-03-13T09:01:46;96104.34;;;8.70;57.15
50977;BME280;36992;48.200;12.418;2023-03-13T09:04:12;96115.28;;;8.74;57.37
50977;BME280;36992;48.200;12.418;2023-03-13T09:06:39;96106.91;;;8.75;57.23
50977;BME280;36992;48.200;12.418;2023-03-13T09:09:06;96117.66;;;8.75;57.58
50977;BME280;36992;48.200;12.418;2023-03-13T09:11:34;96117.56;;;8.81;57.36
50977;BME280;36992;48.200;12.418;2023-03-13T09:14:03;96118.09;;;8.83;57.14
50977;BME280;36992;48.200;12.418;2023-03-13T09:16:30;96124.25;;;8.83;57.29
50977;BME280;36992;48.200;12.418;2023-03-13T09:18:58;96114.31;;;8.84;56.99
50977;BME280;36992;48.200;12.418;2023-03-13T09:21:26;96112.63;;;8.88;57.82
50977;BME280;36992;48.200;12.418;2023-03-13T09:23:53;96107.75;;;8.90;57.55
50977;BME280;36992;48.200;12.418;2023-03-13T09:26:21;96113.34;;;8.94;57.02
50977;BME280;36992;48.200;12.418;2023-03-13T09:28:48;96106.06;;;8.94;57.45
50977;BME280;36992;48.200;12.418;2023-03-13T09:31:16;96106.78;;;9.00;57.75
50977;BME280;36992;48.200;12.418;2023-03-13T09:33:44;96118.31;;;9.00;57.61
50977;BME280;36992;48.200;12.418;2023-03-13T09:36:11;96113.75;;;9.01;58.16
50977;BME280;36992;48.200;12.418;2023-03-13T09:38:38;96112.34;;;9.03;57.98
50977;BME280;36992;48.200;12.418;2023-03-13T09:41:19;96110.06;;;9.11;56.75
50977;BME280;36992;48.200;12.418;2023-03-13T09:43:48;96114.34;;;9.12;57.28
50977;BME280;36992;48.200;12.418;2023-03-13T09:46:20;96096.53;;;9.16;56.95
50977;BME280;36992;48.200;12.418;2023-03-13T09:48:51;96098.13;;;9.17;56.92
50977;BME280;36992;48.200;12.418;2023-03-13T09:51:24;96101.81;;;9.21;57.24
50977;BME280;36992;48.200;12.418;2023-03-13T09:53:56;96090.47;;;9.24;57.05
50977;BME280;36992;48.200;12.418;2023-03-13T09:56:25;96093.66;;;9.26;57.22
50977;BME280;36992;48.200;12.418;2023-03-13T09:58:56;96088.69;;;9.34;57.09
50977;BME280;36992;48.200;12.418;2023-03-13T10:01:28;96096.66;;;9.39;57.25
50977;BME280;36992;48.200;12.418;2023-03-13T10:04:01;96097.63;;;9.43;57.54
50977;BME280;36992;48.200;12.418;2023-03-13T10:06:34;96081.88;;;9.50;57.64
50977;BME280;36992;48.200;12.418;2023-03-13T10:09:01;96079.72;;;9.52;58.06
50977;BME280;36992;48.200;12.418;2023-03-13T10:11:33;96073.31;;;9.62;56.70
50977;BME280;36992;48.200;12.418;2023-03-13T10:14:08;96067.50;;;9.69;56.71
50977;BME280;36992;48.200;12.418;2023-03-13T10:16:41;96062.53;;;9.76;57.19
50977;BME280;36992;48.200;12.418;2023-03-13T10:19:11;96059.72;;;9.81;57.53
50977;BME280;36992;48.200;12.418;2023-03-13T10:21:41;96049.66;;;9.87;57.76
50977;BME280;36992;48.200;12.418;2023-03-13T10:24:15;96054.00;;;9.97;57.92
50977;BME280;36992;48.200;12.418;2023-03-13T10:26:43;96042.03;;;10.03;58.11
50977;BME280;36992;48.200;12.418;2023-03-13T10:29:19;96034.69;;;10.18;57.00
50977;BME280;36992;48.200;12.418;2023-03-13T10:31:53;96034.44;;;10.28;57.18
50977;BME280;36992;48.200;12.418;2023-03-13T10:34:21;96025.44;;;10.33;57.75
50977;BME280;36992;48.200;12.418;2023-03-13T10:36:49;96025.22;;;10.43;58.06
50977;BME280;36992;48.200;12.418;2023-03-13T10:39:21;96012.94;;;10.51;58.41
50977;BME280;36992;48.200;12.418;2023-03-13T10:41:48;96013.75;;;10.60;58.21
50977;BME280;36992;48.200;12.418;2023-03-13T10:44:17;96013.16;;;10.72;58.59
50977;BME280;36992;48.200;12.418;2023-03-13T10:46:46;96010.22;;;10.83;58.16
50977;BME280;36992;48.200;12.418;2023-03-13T10:49:16;95999.94;;;10.93;59.00
50977;BME280;36992;48.200;12.418;2023-03-13T10:51:46;95996.66;;;11.05;57.92
50977;BME280;36992;48.200;12.418;2023-03-13T10:54:15;96001.75;;;11.16;58.80
50977;BME280;36992;48.200;12.418;2023-03-13T10:56:46;96001.63;;;11.30;57.86
50977;BME280;36992;48.200;12.418;2023-03-13T10:59:19;96004.66;;;11.46;57.43
50977;BME280;36992;48.200;12.418;2023-03-13T11:01:47;96002.00;;;11.55;56.99
50977;BME280;36992;48.200;12.418;2023-03-13T11:04:29;95998.19;;;11.73;56.43
50977;BME280;36992;48.200;12.418;2023-03-13T11:07:02;95997.88;;;11.84;55.89
50977;BME280;36992;48.200;12.418;2023-03-13T11:09:29;96000.09;;;11.91;56.49
50977;BME280;36992;48.200;12.418;2023-03-13T11:12:02;96001.53;;;12.06;54.76
50977;BME280;36992;48.200;12.418;2023-03-13T11:14:28;95996.00;;;12.11;54.13
50977;BME280;36992;48.200;12.418;2023-03-13T11:16:59;95990.72;;;12.23;54.62
50977;BME280;36992;48.200;12.418;2023-03-13T11:19:34;95976.91;;;12.34;53.52
50977;BME280;36992;48.200;12.418;2023-03-13T11:22:16;95979.22;;;12.44;52.85
50977;BME280;36992;48.200;12.418;2023-03-13T11:24:50;95970.66;;;12.51;52.08
50977;BME280;36992;48.200;12.418;2023-03-13T11:27:27;95958.69;;;12.61;52.56
50977;BME280;36992;48.200;12.418;2023-03-13T11:30:05;95950.88;;;12.68;52.98
50977;BME280;36992;48.200;12.418;2023-03-13T11:32:39;95952.28;;;12.74;52.72
50977;BME280;36992;48.200;12.418;2023-03-13T11:35:16;95942.56;;;12.82;52.50
50977;BME280;36992;48.200;12.418;2023-03-13T11:37:45;95947.66;;;12.84;52.40
50977;BME280;36992;48.200;12.418;2023-03-13T11:40:17;95944.56;;;12.94;52.76
50977;BME280;36992;48.200;12.418;2023-03-13T11:42:56;95937.19;;;13.03;52.91
50977;BME280;36992;48.200;12.418;2023-03-13T11:45:43;95930.63;;;13.13;52.73
50977;BME280;36992;48.200;12.418;2023-03-13T11:48:24;95934.41;;;13.21;51.94
50977;BME280;36992;48.200;12.418;2023-03-13T11:51:03;95938.94;;;13.29;52.07
50977;BME280;36992;48.200;12.418;2023-03-13T11:53:43;95945.56;;;13.41;52.56
50977;BME280;36992;48.200;12.418;2023-03-13T11:56:16;95943.47;;;13.46;52.12
50977;BME280;36992;48.200;12.418;2023-03-13T11:58:59;95940.03;;;13.58;52.14
50977;BME280;36992;48.200;12.418;2023-03-13T12:01:32;95939.50;;;13.65;52.01
50977;BME280;36992;48.200;12.418;2023-03-13T12:04:03;95935.59;;;13.75;51.19
50977;BME280;36992;48.200;12.418;2023-03-13T12:06:35;95929.34;;;13.83;50.99
50977;BME280;36992;48.200;12.418;2023-03-13T12:09:08;95917.28;;;13.93;50.71
50977;BME280;36992;48.200;12.418;2023-03-13T12:11:39;95916.09;;;14.03;50.07
50977;BME280;36992;48.200;12.418;2023-03-13T12:14:11;95902.47;;;14.12;50.03
50977;BME280;36992;48.200;12.418;2023-03-13T12:16:42;95902.81;;;14.23;49.78
50977;BME280;36992;48.200;12.418;2023-03-13T12:19:12;95889.19;;;14.32;48.30
50977;BME280;36992;48.200;12.418;2023-03-13T12:21:46;95883.78;;;14.44;48.78
50977;BME280;36992;48.200;12.418;2023-03-13T12:24:22;95886.81;;;14.55;48.42
50977;BME280;36992;48.200;12.418;2023-03-13T12:26:53;95874.63;;;14.61;48.13
50977;BME280;36992;48.200;12.418;2023-03-13T12:29:29;95866.38;;;14.70;47.25
50977;BME280;36992;48.200;12.418;2023-03-13T12:32:03;95844.94;;;14.77;46.99
50977;BME280;36992;48.200;12.418;2023-03-13T12:34:41;95830.13;;;14.87;44.73
50977;BME280;36992;48.200;12.418;2023-03-13T12:37:20;95821.41;;;14.94;44.63
50977;BME280;36992;48.200;12.418;2023-03-13T12:39:48;95814.63;;;15.00;41.97
50977;BME280;36992;48.200;12.418;2023-03-13T12:42:32;95807.13;;;15.09;43.37
50977;BME280;36992;48.200;12.418;2023-03-13T12:45:04;95806.13;;;15.14;39.80
50977;BME280;36992;48.200;12.418;2023-03-13T12:47:33;95798.09;;;15.18;39.31
50977;BME280;36992;48.200;12.418;2023-03-13T12:50:18;95802.22;;;15.28;41.75
50977;BME280;36992;48.200;12.418;2023-03-13T12:52:56;95808.09;;;15.30;38.70
50977;BME280;36992;48.200;12.418;2023-03-13T12:58:29;95795.91;;;15.52;38.40
50977;BME280;36992;48.200;12.418;2023-03-13T13:01:04;95793.03;;;15.61;38.37
50977;BME280;36992;48.200;12.418;2023-03-13T13:03:33;95789.72;;;15.68;38.63
50977;BME280;36992;48.200;12.418;2023-03-13T13:06:05;95781.75;;;15.75;38.16
50977;BME280;36992;48.200;12.418;2023-03-13T13:08:36;95781.50;;;15.80;38.74